createdAt,value
2023-03-03T00:00:56.136Z,97.00
2023-03-03T00:03:27.208Z,91.63
2023-03-03T00:05:55.806Z,89.72
2023-03-03T00:08:24.542Z,87.85
2023-03-03T00:10:52.999Z,95.30
2023-03-03T00:13:23.665Z,99.22
2023-03-03T00:16:30.262Z,98.05
2023-03-03T00:19:25.899Z,102.30
2023-03-03T00:24:56.183Z,94.03
2023-03-03T00:27:31.551Z,104.88
2023-03-03T00:30:00.912Z,131.85
2023-03-03T00:32:39.370Z,122.47
2023-03-03T00:35:25.579Z,122.57
2023-03-03T00:37:57.581Z,141.18
2023-03-03T00:40:28.765Z,267.30
2023-03-03T00:43:04.556Z,195.80
2023-03-03T00:45:42.368Z,262.13
2023-03-03T00:48:32.357Z,244.00
2023-03-03T00:51:12.440Z,253.15
2023-03-03T00:53:48.561Z,210.40
2023-03-03T00:56:17.129Z,185.18
2023-03-03T00:59:03.244Z,144.55
2023-03-03T01:01:31.517Z,131.95
2023-03-03T01:04:03.032Z,136.10
2023-03-03T01:06:33.406Z,129.77
2023-03-03T01:09:02.392Z,136.25
2023-03-03T01:11:30.859Z,122.25
2023-03-03T01:13:59.625Z,123.38
2023-03-03T01:16:28.268Z,130.38
2023-03-03T01:19:25.947Z,143.15
2023-03-03T01:28:29.214Z,158.60
2023-03-03T01:34:17.021Z,135.13
2023-03-03T01:40:16.746Z,199.18
2023-03-03T01:43:03.206Z,113.90
2023-03-03T01:49:13.175Z,118.07
2023-03-03T01:52:09.751Z,329.27
2023-03-03T01:57:52.268Z,113.00
2023-03-03T02:00:24.848Z,117.65
2023-03-03T02:02:54.481Z,117.15
2023-03-03T02:05:26.597Z,120.55
2023-03-03T02:07:55.613Z,160.45
2023-03-03T02:10:24.649Z,124.10
2023-03-03T02:12:55.022Z,123.03
2023-03-03T02:15:25.632Z,210.20
2023-03-03T02:17:56.265Z,132.45
2023-03-03T02:20:49.994Z,126.45
2023-03-03T02:23:31.752Z,132.68
2023-03-03T02:29:42.570Z,123.07
2023-03-03T02:35:33.870Z,117.65
2023-03-03T02:41:57.041Z,114.28
2023-03-03T02:44:51.576Z,132.52
2023-03-03T02:47:42.516Z,135.85
2023-03-03T02:50:12.073Z,118.68
2023-03-03T02:52:46.042Z,122.32
2023-03-03T02:55:14.734Z,125.95
2023-03-03T02:57:43.186Z,112.30
2023-03-03T03:00:21.393Z,111.80
2023-03-03T03:02:49.658Z,114.30
2023-03-03T03:05:18.166Z,113.25
2023-03-03T03:07:46.590Z,109.07
2023-03-03T03:10:17.770Z,107.68
2023-03-03T03:12:46.427Z,99.18
2023-03-03T03:15:16.676Z,97.68
2023-03-03T03:17:45.457Z,95.90
2023-03-03T03:23:13.929Z,96.07
2023-03-03T03:25:46.884Z,103.95
2023-03-03T03:28:17.183Z,90.13
2023-03-03T03:30:47.071Z,85.93
2023-03-03T03:33:28.380Z,104.07
2023-03-03T03:35:56.849Z,91.32
2023-03-03T03:38:27.183Z,116.57
2023-03-03T03:40:55.937Z,110.28
2023-03-03T03:43:24.729Z,121.35
2023-03-03T03:45:55.498Z,102.97
2023-03-03T03:48:23.867Z,95.97
2023-03-03T03:50:52.709Z,102.15
2023-03-03T03:53:30.554Z,91.78
2023-03-03T03:56:13.132Z,116.38
2023-03-03T04:05:32.134Z,96.25
2023-03-03T04:08:42.416Z,78.28
2023-03-03T04:14:13.258Z,99.65
2023-03-03T04:16:58.308Z,79.80
2023-03-03T04:22:36.756Z,81.13
2023-03-03T08:37:13.065Z,24.57
2023-03-03T08:39:41.370Z,28.05
2023-03-03T08:42:09.714Z,24.83
2023-03-03T08:44:43.647Z,28.08
2023-03-03T08:47:11.922Z,29.63
2023-03-03T08:49:40.221Z,27.55
2023-03-03T08:52:08.474Z,23.80
2023-03-03T08:54:38.138Z,23.20
2023-03-03T08:57:06.419Z,25.90
2023-03-03T08:59:45.081Z,25.27
2023-03-03T09:02:13.425Z,23.40
2023-03-03T09:04:41.717Z,25.98
2023-03-03T09:07:10.294Z,25.08
2023-03-03T09:09:40.229Z,21.05
2023-03-03T09:12:17.514Z,23.38
2023-03-03T09:14:46.281Z,23.40
2023-03-03T09:17:27.925Z,24.55
2023-03-03T09:20:02.841Z,58.00
2023-03-03T09:22:37.434Z,25.92
2023-03-03T09:25:19.824Z,24.17
2023-03-03T09:27:48.110Z,26.50
2023-03-03T09:30:36.118Z,24.13
2023-03-03T09:33:22.433Z,22.83
2023-03-03T09:35:53.553Z,24.02
2023-03-03T09:38:28.944Z,39.35
2023-03-03T09:41:17.333Z,25.90
2023-03-03T09:43:57.221Z,22.92
2023-03-03T09:46:37.995Z,19.42
2023-03-03T09:49:16.968Z,19.88
2023-03-03T09:52:04.720Z,19.02
2023-03-03T09:54:46.884Z,20.58
2023-03-03T09:57:21.445Z,20.08
2023-03-03T10:00:24.714Z,16.25
2023-03-03T10:03:07.704Z,21.80
2023-03-03T10:05:48.692Z,22.75
2023-03-03T10:08:38.422Z,18.95
2023-03-03T10:11:16.305Z,20.70
2023-03-03T10:14:00.453Z,22.55
2023-03-03T10:16:44.053Z,23.20
2023-03-03T10:19:37.028Z,21.63
2023-03-03T10:22:19.600Z,22.83
2023-03-03T10:25:02.669Z,24.40
2023-03-03T10:27:58.712Z,25.10
2023-03-03T10:30:46.225Z,27.45
2023-03-03T10:33:28.247Z,22.63
2023-03-03T10:36:22.401Z,22.77
2023-03-03T10:38:59.900Z,25.13
2023-03-03T10:41:43.859Z,25.63
2023-03-03T10:44:34.801Z,28.00
2023-03-03T10:47:27.914Z,24.73
2023-03-03T10:50:06.186Z,22.33
2023-03-03T10:52:40.676Z,22.08
2023-03-03T10:55:27.064Z,28.23
2023-03-03T10:58:10.682Z,37.20
2023-03-03T11:00:46.554Z,29.73
2023-03-03T11:03:54.437Z,23.60
2023-03-03T11:06:30.997Z,24.83
2023-03-03T11:09:06.381Z,27.02
2023-03-03T11:11:45.854Z,21.77
2023-03-03T11:14:21.032Z,21.80
2023-03-03T11:17:01.425Z,24.45
2023-03-03T11:19:52.906Z,30.20
2023-03-03T11:22:37.506Z,25.80
2023-03-03T11:25:21.840Z,30.88
2023-03-03T11:28:13.884Z,23.90
2023-03-03T11:30:59.728Z,24.67
2023-03-03T11:33:35.277Z,22.88
2023-03-03T11:36:11.997Z,20.50
2023-03-03T11:38:58.299Z,23.92
2023-03-03T11:41:41.004Z,23.83
2023-03-03T11:44:20.546Z,18.20
2023-03-03T11:46:52.970Z,25.15
2023-03-03T11:49:27.101Z,24.40
2023-03-03T11:52:06.517Z,22.45
2023-03-03T11:54:46.538Z,23.52
2023-03-03T11:57:22.542Z,22.90
2023-03-03T12:00:16.519Z,24.75
2023-03-03T12:03:06.569Z,21.52
2023-03-03T12:05:51.390Z,22.00
2023-03-03T12:08:31.133Z,16.63
2023-03-03T12:11:08.049Z,18.23
2023-03-03T12:13:49.697Z,17.05
2023-03-03T12:16:26.974Z,16.45
2023-03-03T12:19:05.596Z,14.70
2023-03-03T12:21:59.603Z,11.38
2023-03-03T12:24:37.949Z,14.80
2023-03-03T12:27:20.679Z,11.85
2023-03-03T12:29:59.959Z,11.98
2023-03-03T12:32:39.234Z,11.45
2023-03-03T12:35:18.379Z,13.73
2023-03-03T12:38:00.175Z,12.65
2023-03-03T12:40:35.213Z,8.38
2023-03-03T12:43:23.666Z,11.38
2023-03-03T12:46:01.383Z,12.80
2023-03-03T12:48:40.297Z,9.20
2023-03-03T12:51:16.361Z,8.48
2023-03-03T12:54:01.051Z,10.07
2023-03-03T12:56:36.722Z,9.18
2023-03-03T12:59:16.035Z,9.25
2023-03-03T13:02:05.289Z,8.68
2023-03-03T13:04:40.141Z,6.95
2023-03-03T13:07:25.540Z,9.20
2023-03-03T13:10:05.305Z,11.00
2023-03-03T13:12:38.333Z,13.40
2023-03-03T13:21:36.425Z,11.32
2023-03-03T13:24:17.238Z,11.10
2023-03-03T13:26:49.999Z,12.25
2023-03-03T13:29:25.547Z,15.15
2023-03-03T13:32:04.813Z,13.07
2023-03-03T13:34:43.165Z,14.48
2023-03-03T13:37:17.073Z,18.35
2023-03-03T13:39:57.173Z,18.27
2023-03-03T13:42:32.551Z,16.00
2023-03-03T13:45:04.168Z,18.80
2023-03-03T13:47:44.333Z,15.68
2023-03-03T13:50:21.148Z,17.73
2023-03-03T13:53:01.941Z,19.75
2023-03-03T13:55:35.272Z,16.98
2023-03-03T13:58:12.416Z,16.00
2023-03-03T14:00:53.726Z,16.15
2023-03-03T14:04:03.910Z,17.48
2023-03-03T14:06:33.649Z,18.60
2023-03-03T14:09:15.407Z,19.25
2023-03-03T14:11:48.828Z,16.90
2023-03-03T14:14:32.441Z,16.30
2023-03-03T14:17:08.113Z,13.80
2023-03-03T14:19:39.517Z,12.32
2023-03-03T14:22:23.827Z,15.18
2023-03-03T14:25:03.880Z,14.82
2023-03-03T14:27:38.131Z,13.07
2023-03-03T14:30:29.344Z,13.15
2023-03-03T14:33:03.336Z,13.48
2023-03-03T14:35:34.677Z,14.65
2023-03-03T14:38:07.493Z,12.52
2023-03-03T14:40:38.901Z,13.38
2023-03-03T14:43:21.585Z,15.77
2023-03-03T14:45:49.979Z,15.10
2023-03-03T14:48:19.937Z,11.20
2023-03-03T14:50:52.493Z,11.82
2023-03-03T14:53:34.842Z,19.83
2023-03-03T14:56:25.063Z,22.38
2023-03-03T14:58:54.310Z,18.25
2023-03-03T15:01:33.397Z,26.00
2023-03-03T15:04:03.669Z,20.80
2023-03-03T15:06:44.349Z,31.30
2023-03-03T15:09:40.357Z,18.90
2023-03-03T15:12:21.989Z,15.50
2023-03-03T15:14:51.707Z,12.65
2023-03-03T15:17:28.948Z,10.05
2023-03-03T15:20:24.704Z,8.98
2023-03-03T15:22:57.689Z,8.43
2023-03-03T15:25:43.212Z,8.77
2023-03-03T15:28:26.657Z,8.60
2023-03-03T15:31:01.020Z,11.75
2023-03-03T15:33:35.112Z,8.98
2023-03-03T15:36:09.109Z,14.18
2023-03-03T15:38:52.964Z,8.85
2023-03-03T15:41:32.290Z,7.88
2023-03-03T15:44:11.292Z,13.57
2023-03-03T15:46:55.065Z,13.88
2023-03-03T15:49:52.931Z,12.95
2023-03-03T15:52:36.754Z,12.02
2023-03-03T15:55:21.666Z,13.05
2023-03-03T15:58:07.049Z,11.95
2023-03-03T16:00:51.876Z,11.70
2023-03-03T16:03:24.738Z,11.73
2023-03-03T16:05:56.390Z,13.70
2023-03-03T16:08:31.934Z,13.30
2023-03-03T16:11:08.101Z,19.77
2023-03-03T16:13:59.391Z,20.67
2023-03-03T16:16:39.485Z,17.63
2023-03-03T16:19:19.731Z,24.17
2023-03-03T16:22:13.548Z,21.85
2023-03-03T16:24:52.570Z,22.45
2023-03-03T16:27:29.145Z,14.13
2023-03-03T16:30:11.732Z,15.65
2023-03-03T16:32:45.521Z,17.15
2023-03-03T16:35:26.414Z,15.13
2023-03-03T16:38:00.868Z,22.50
2023-03-03T16:40:33.558Z,18.90
2023-03-03T16:43:19.115Z,19.75
2023-03-03T16:45:49.770Z,24.02
2023-03-03T16:48:35.827Z,19.48
2023-03-03T16:51:23.603Z,22.65
2023-03-03T16:54:04.260Z,14.60
2023-03-03T16:56:37.293Z,22.52
2023-03-03T16:59:26.337Z,24.35
2023-03-03T17:02:02.598Z,22.77
2023-03-03T17:04:41.226Z,19.00
2023-03-03T17:07:21.671Z,20.52
2023-03-03T17:10:06.546Z,20.30
2023-03-03T17:12:55.233Z,23.60
2023-03-03T17:15:39.674Z,20.95
2023-03-03T17:18:15.644Z,22.77
2023-03-03T17:20:50.018Z,21.85
2023-03-03T17:23:36.503Z,24.83
2023-03-03T17:26:23.023Z,23.05
2023-03-03T17:29:02.212Z,27.23
2023-03-03T17:31:42.263Z,41.28
2023-03-03T17:34:25.905Z,26.83
2023-03-03T17:37:08.530Z,25.83
2023-03-03T17:39:54.508Z,22.15
2023-03-03T17:42:32.390Z,28.38
2023-03-03T17:45:07.378Z,26.70
2023-03-03T17:47:48.329Z,19.23
2023-03-03T17:50:35.739Z,20.75
2023-03-03T17:53:44.612Z,25.75
2023-03-03T17:56:21.986Z,22.75
2023-03-03T17:59:20.208Z,28.48
2023-03-03T18:02:04.517Z,41.63
2023-03-03T18:04:50.324Z,36.92
2023-03-03T18:07:38.604Z,30.17
2023-03-03T18:10:47.802Z,25.95
2023-03-03T18:13:43.290Z,23.90
2023-03-03T18:16:27.042Z,24.25
2023-03-03T18:19:23.258Z,27.33
2023-03-03T18:21:59.533Z,29.13
2023-03-03T18:24:36.137Z,27.77
2023-03-03T18:27:31.160Z,37.83
2023-03-03T18:30:35.302Z,27.08
2023-03-03T18:33:14.268Z,29.30
